Time,TemperatureF,DewpointF,PressureIn,WindDirection,WindDirectionDegrees,WindSpeedMPH,WindSpeedGustMPH,Humidity,HourlyPrecipIn,Conditions,Clouds,dailyrainin,SoftwareType,DateUTC
2013-06-21 00:01:00,80.1,74.8,30.02,SE,143,10.4,10.4,84,0.00,CLR,,0.00,WeatherDisplay:10.37,2013-06-21 05:01:00,
2013-06-21 00:06:00,80.0,74.7,30.03,SE,146,3.5,3.5,84,0.00,CLR,,0.00,WeatherDisplay:10.37,2013-06-21 05:06:00,
2013-06-21 00:11:00,79.9,74.6,30.03,SSE,153,5.8,5.8,84,0.00,CLR,,0.00,WeatherDisplay:10.37,2013-06-21 05:11:00,
2013-06-21 00:16:00,79.9,74.6,30.03,SE,139,10.4,10.4,84,0.00,CLR,,0.00,WeatherDisplay:10.37,2013-06-21 05:16:00,
2013-06-21 00:21:00,79.9,74.6,30.03,SE,142,6.9,6.9,84,0.00,CLR,,0.00,WeatherDisplay:10.37,2013-06-21 05:21:00,
2013-06-21 00:26:00,79.8,74.9,30.03,SSE,156,8.1,8.1,85,0.00,CLR,,0.00,WeatherDisplay:10.37,2013-06-21 05:26:00,
2013-06-21 00:31:00,79.7,74.8,30.03,SSE,150,3.5,3.5,85,0.00,CLR,,0.00,WeatherDisplay:10.37,2013-06-21 05:31:00,
2013-06-21 00:36:00,79.7,74.8,30.03,SE,131,4.6,4.6,85,0.00,CLR,,0.00,WeatherDisplay:10.37,2013-06-21 05:36:00,
2013-06-21 00:41:00,79.6,74.7,30.02,SSE,161,9.2,9.2,85,0.00,CLR,,0.00,WeatherDisplay:10.37,2013-06-21 05:41:00,
2013-06-21 00:46:00,79.6,74.7,30.03,SSE,148,11.5,11.5,85,0.00,CLR,,0.00,WeatherDisplay:10.37,2013-06-21 05:46:00,
2013-06-21 00:51:00,79.5,74.6,30.03,SE,139,8.1,8.1,85,0.00,CLR,,0.00,WeatherDisplay:10.37,2013-06-21 05:51:00,
2013-06-21 00:56:00,79.4,74.8,30.03,SSE,150,11.5,11.5,86,0.00,CLR,,0.00,WeatherDisplay:10.37,2013-06-21 05:56:00,
2013-06-21 01:01:00,79.3,74.7,30.02,ESE,119,8.1,8.1,86,0.00,CLR,,0.00,WeatherDisplay:10.37,2013-06-21 06:01:00,
2013-06-21 01:06:00,79.2,74.6,30.02,SSE,164,5.8,5.8,86,0.00,CLR,,0.00,WeatherDisplay:10.37,2013-06-21 06:06:00,
2013-06-21 01:11:00,79.2,75.0,30.02,SSE,159,6.9,6.9,87,0.00,CLR,,0.00,WeatherDisplay:10.37,2013-06-21 06:11:00,
2013-06-21 01:16:00,79.1,74.9,30.02,South,187,3.5,3.8,87,0.00,CLR,,0.00,WeatherDisplay:10.37,2013-06-21 06:16:00,
2013-06-21 01:21:00,79.0,74.8,30.02,SE,146,9.0,9.0,87,0.00,CLR,,0.00,WeatherDisplay:10.37,2013-06-21 06:21:00,
2013-06-21 01:26:00,79.0,74.8,30.02,SE,143,9.2,9.2,87,0.00,CLR,,0.00,WeatherDisplay:10.37,2013-06-21 06:26:00,
2013-06-21 01:31:00,78.9,74.7,30.02,ESE,103,9.2,9.2,87,0.00,CLR,,0.00,WeatherDisplay:10.37,2013-06-21 06:31:00,
2013-06-21 01:36:00,78.8,74.9,30.02,South,170,5.8,5.8,88,0.00,CLR,,0.00,WeatherDisplay:10.37,2013-06-21 06:36:00,
2013-06-21 01:41:00,78.7,74.8,30.01,SE,134,10.0,10.0,88,0.00,CLR,,0.00,WeatherDisplay:10.37,2013-06-21 06:41:00,
2013-06-21 01:46:00,78.7,74.8,30.01,SE,145,8.1,8.1,88,0.00,CLR,,0.00,WeatherDisplay:10.37,2013-06-21 06:46:00,
2013-06-21 01:51:00,78.6,74.7,30.01,SE,143,8.1,8.1,88,0.00,CLR,,0.00,WeatherDisplay:10.37,2013-06-21 06:51:00,
2013-06-21 01:56:00,78.4,74.9,30.01,SSE,156,10.4,10.4,89,0.00,CLR,,0.00,WeatherDisplay:10.37,2013-06-21 06:56:00,
2013-06-21 02:01:00,78.3,74.8,30.01,SSE,150,5.8,5.8,89,0.00,CLR,,0.00,WeatherDisplay:10.37,2013-06-21 07:01:00,
2013-06-21 02:06:00,78.2,74.7,30.01,SSE,156,9.2,9.2,89,0.00,CLR,,0.00,WeatherDisplay:10.37,2013-06-21 07:06:00,
2013-06-21 02:11:00,78.0,74.8,30.01,SE,146,4.6,4.6,90,0.00,CLR,,0.00,WeatherDisplay:10.37,2013-06-21 07:11:00,
2013-06-21 02:16:00,77.9,74.7,30.01,SSE,150,5.8,5.9,90,0.00,CLR,,0.00,WeatherDisplay:10.37,2013-06-21 07:16:00,
2013-06-21 02:21:00,77.8,74.6,30.00,SSE,152,8.1,8.1,90,0.00,CLR,,0.00,WeatherDisplay:10.37,2013-06-21 07:21:00,
2013-06-21 02:26:00,77.7,74.9,30.00,SSE,153,11.5,11.5,91,0.00,CLR,,0.00,WeatherDisplay:10.37,2013-06-21 07:26:00,
2013-06-21 02:31:00,77.6,74.8,30.00,South,172,3.5,3.5,91,0.00,CLR,,0.00,WeatherDisplay:10.37,2013-06-21 07:31:00,
2013-06-21 02:36:00,77.5,74.7,30.00,SE,146,7.0,7.0,91,0.00,CLR,,0.00,WeatherDisplay:10.37,2013-06-21 07:36:00,
2013-06-21 02:41:00,77.5,74.7,30.00,SSE,154,6.9,6.9,91,0.00,CLR,,0.00,WeatherDisplay:10.37,2013-06-21 07:41:00,
2013-06-21 02:46:00,77.3,74.5,30.00,SSE,150,3.5,3.5,91,0.00,CLR,,0.00,WeatherDisplay:10.37,2013-06-21 07:46:00,
2013-06-21 02:51:00,77.2,74.4,29.99,SE,133,5.8,5.8,91,0.00,CLR,,0.00,WeatherDisplay:10.37,2013-06-21 07:51:00,
2013-06-21 02:56:00,77.1,74.6,30.00,SE,139,4.6,4.6,92,0.00,CLR,,0.00,WeatherDisplay:10.37,2013-06-21 07:56:00,
2013-06-21 03:01:00,77.0,74.5,30.00,SSE,154,3.5,3.5,92,0.00,CLR,,0.00,WeatherDisplay:10.37,2013-06-21 08:01:00,
2013-06-21 03:06:00,76.8,74.3,30.00,SSE,159,3.5,3.5,92,0.00,CLR,,0.00,WeatherDisplay:10.37,2013-06-21 08:06:00,
2013-06-21 03:11:00,76.7,74.2,29.99,SSE,159,5.0,5.0,92,0.00,CLR,,0.00,WeatherDisplay:10.37,2013-06-21 08:11:00,
2013-06-21 03:16:00,76.7,74.2,29.99,SSE,149,6.0,6.0,92,0.00,CLR,,0.00,WeatherDisplay:10.37,2013-06-21 08:16:00,
2013-06-21 03:21:00,76.6,74.4,29.99,SE,145,5.8,5.8,93,0.00,CLR,,0.00,WeatherDisplay:10.37,2013-06-21 08:21:00,
2013-06-21 03:26:00,76.6,74.4,29.99,SE,132,3.5,3.5,93,0.00,CLR,,0.00,WeatherDisplay:10.37,2013-06-21 08:26:00,
2013-06-21 03:31:00,76.5,74.3,29.99,SSE,149,4.6,4.6,93,0.00,CLR,,0.00,WeatherDisplay:10.37,2013-06-21 08:31:00,
2013-06-21 03:36:00,76.4,74.2,29.99,SSE,149,4.6,4.6,93,0.00,CLR,,0.00,WeatherDisplay:10.37,2013-06-21 08:36:00,
2013-06-21 03:41:00,76.3,74.1,29.99,SE,133,5.0,5.0,93,0.00,CLR,,0.00,WeatherDisplay:10.37,2013-06-21 08:41:00,
2013-06-21 03:46:00,76.2,74.0,29.99,SE,136,3.5,3.5,93,0.00,CLR,,0.00,WeatherDisplay:10.37,2013-06-21 08:46:00,
2013-06-21 03:51:00,76.1,73.9,29.99,SE,146,1.1,1.1,93,0.00,CLR,,0.00,WeatherDisplay:10.37,2013-06-21 08:51:00,
2013-06-21 03:56:00,76.0,73.8,29.99,SSE,154,3.5,3.5,93,0.00,CLR,,0.00,WeatherDisplay:10.37,2013-06-21 08:56:00,
2013-06-21 04:01:00,75.9,73.7,29.99,SSE,160,3.5,3.5,93,0.00,CLR,,0.00,WeatherDisplay:10.37,2013-06-21 09:01:00,
2013-06-21 04:06:00,75.8,73.6,29.99,SE,133,1.1,1.1,93,0.00,CLR,,0.00,WeatherDisplay:10.37,2013-06-21 09:06:00,
2013-06-21 04:11:00,75.7,73.8,29.99,SE,145,0.0,0.0,94,0.00,CLR,,0.00,WeatherDisplay:10.37,2013-06-21 09:11:00,
2013-06-21 04:16:00,75.7,73.8,29.99,SSE,156,3.5,3.5,94,0.00,CLR,,0.00,WeatherDisplay:10.37,2013-06-21 09:16:00,
2013-06-21 04:21:00,75.6,73.8,29.99,SE,146,0.0,0.3,94,0.00,CLR,,0.00,WeatherDisplay:10.37,2013-06-21 09:21:00,
2013-06-21 04:26:00,75.6,73.8,29.99,SSE,152,0.0,0.6,94,0.00,CLR,,0.00,WeatherDisplay:10.37,2013-06-21 09:26:00,
2013-06-21 04:31:00,75.5,73.7,29.99,SE,128,0.0,0.0,94,0.00,CLR,,0.00,WeatherDisplay:10.37,2013-06-21 09:31:00,
2013-06-21 04:36:00,75.6,73.8,29.99,SSE,148,3.0,3.0,94,0.00,CLR,,0.00,WeatherDisplay:10.37,2013-06-21 09:36:00,
2013-06-21 04:41:00,75.5,73.7,29.99,SE,146,3.5,0.0,94,0.00,CLR,,0.00,WeatherDisplay:10.37,2013-06-21 09:41:00,
2013-06-21 04:46:00,75.6,73.8,29.99,SE,145,4.6,4.6,94,0.00,CLR,,0.00,WeatherDisplay:10.37,2013-06-21 09:46:00,
2013-06-21 04:51:00,75.6,73.8,29.99,SSE,156,3.5,3.5,94,0.00,CLR,,0.00,WeatherDisplay:10.37,2013-06-21 09:51:00,
2013-06-21 04:56:00,75.6,73.8,29.99,SE,146,6.9,6.9,94,0.00,CLR,,0.00,WeatherDisplay:10.37,2013-06-21 09:56:00,
2013-06-21 05:01:00,75.7,73.8,29.99,SSE,153,0.0,0.0,94,0.00,CLR,,0.00,WeatherDisplay:10.37,2013-06-21 10:01:00,
2013-06-21 05:06:00,75.7,73.8,29.99,SSE,160,0.0,0.0,94,0.00,CLR,,0.00,WeatherDisplay:10.37,2013-06-21 10:06:00,
2013-06-21 05:11:00,75.7,73.8,30.00,SSE,155,3.5,0.0,94,0.00,CLR,,0.00,WeatherDisplay:10.37,2013-06-21 10:11:00,
2013-06-21 05:16:00,75.8,73.9,30.00,SSE,160,4.6,4.6,94,0.00,CLR,,0.00,WeatherDisplay:10.37,2013-06-21 10:16:00,
2013-06-21 05:21:00,75.9,74.0,30.00,SSE,166,1.1,0.0,94,0.00,CLR,,0.00,WeatherDisplay:10.37,2013-06-21 10:21:00,
2013-06-21 05:26:00,75.9,74.0,30.00,SSW,197,0.0,0.0,94,0.00,CLR,,0.00,WeatherDisplay:10.37,2013-06-21 10:26:00,
2013-06-21 05:31:00,75.9,74.0,30.00,South,177,3.5,0.0,94,0.00,CLR,,0.00,WeatherDisplay:10.37,2013-06-21 10:31:00,
2013-06-21 05:36:00,75.9,74.0,30.00,South,186,3.5,3.5,94,0.00,CLR,,0.00,WeatherDisplay:10.37,2013-06-21 10:36:00,
2013-06-21 05:41:00,76.0,74.1,30.00,South,190,0.0,0.0,94,0.00,CLR,,0.00,WeatherDisplay:10.37,2013-06-21 10:41:00,
2013-06-21 05:46:00,76.1,74.2,30.00,SSE,160,3.5,3.5,94,0.00,CLR,,0.00,WeatherDisplay:10.37,2013-06-21 10:46:00,
2013-06-21 05:51:00,76.1,74.2,30.00,SSW,194,3.5,3.5,94,0.00,CLR,,0.00,WeatherDisplay:10.37,2013-06-21 10:51:00,
2013-06-21 05:56:00,76.2,74.3,30.00,SSE,166,5.0,5.0,94,0.00,CLR,,0.00,WeatherDisplay:10.37,2013-06-21 10:56:00,
2013-06-21 06:01:00,76.3,74.4,30.01,South,170,9.2,9.2,94,0.00,CLR,,0.00,WeatherDisplay:10.37,2013-06-21 11:01:00,
2013-06-21 06:06:00,76.3,74.4,30.01,South,170,6.9,6.9,94,0.00,CLR,,0.00,WeatherDisplay:10.37,2013-06-21 11:06:00,
2013-06-21 06:11:00,76.3,74.4,30.01,SSE,164,6.9,6.9,94,0.00,CLR,,0.00,WeatherDisplay:10.37,2013-06-21 11:11:00,
2013-06-21 06:16:00,76.4,74.5,30.02,South,169,10.4,10.4,94,0.00,CLR,,0.00,WeatherDisplay:10.37,2013-06-21 11:16:00,
2013-06-21 06:21:00,76.4,74.5,30.02,SSE,160,6.9,6.9,94,0.00,CLR,,0.00,WeatherDisplay:10.37,2013-06-21 11:21:00,
2013-06-21 06:26:00,76.4,74.5,30.02,South,184,9.2,9.2,94,0.00,CLR,,0.00,WeatherDisplay:10.37,2013-06-21 11:26:00,
2013-06-21 06:31:00,76.3,74.4,30.02,SSE,166,2.3,0.0,94,0.00,CLR,,0.00,WeatherDisplay:10.37,2013-06-21 11:31:00,
2013-06-21 06:36:00,76.3,74.4,30.02,South,169,5.8,5.8,94,0.00,CLR,,0.00,WeatherDisplay:10.37,2013-06-21 11:36:00,
2013-06-21 06:41:00,76.3,74.4,30.02,SSE,149,0.0,0.0,94,0.00,CLR,,0.00,WeatherDisplay:10.37,2013-06-21 11:41:00,
2013-06-21 06:46:00,76.2,74.3,30.02,South,175,0.0,0.0,94,0.00,CLR,,0.00,WeatherDisplay:10.37,2013-06-21 11:46:00,
2013-06-21 06:51:00,76.2,74.3,30.02,SSE,150,0.0,0.0,94,0.00,CLR,,0.00,WeatherDisplay:10.37,2013-06-21 11:51:00,
2013-06-21 06:56:00,76.2,74.3,30.02,SSE,150,0.0,0.0,94,0.00,CLR,,0.00,WeatherDisplay:10.37,2013-06-21 11:56:00,
2013-06-21 07:01:00,76.2,74.3,30.02,SSE,160,0.0,0.1,94,0.00,CLR,,0.00,WeatherDisplay:10.37,2013-06-21 12:01:00,
2013-06-21 07:06:00,76.2,74.3,30.02,SE,145,0.0,0.0,94,0.00,CLR,,0.00,WeatherDisplay:10.37,2013-06-21 12:06:00,
2013-06-21 07:11:00,76.2,74.3,30.02,SSE,165,0.0,0.0,94,0.00,CLR,,0.00,WeatherDisplay:10.37,2013-06-21 12:11:00,
2013-06-21 07:16:00,76.3,74.4,30.02,SSE,150,3.5,0.0,94,0.00,CLR,,0.00,WeatherDisplay:10.37,2013-06-21 12:16:00,
2013-06-21 07:21:00,76.3,74.4,30.02,SSE,160,0.0,0.0,94,0.00,CLR,,0.00,WeatherDisplay:10.37,2013-06-21 12:21:00,
2013-06-21 07:26:00,76.4,74.5,30.01,SE,143,4.6,4.6,94,0.00,CLR,,0.00,WeatherDisplay:10.37,2013-06-21 12:26:00,
2013-06-21 07:31:00,76.4,74.5,30.01,SE,146,4.6,4.6,94,0.00,CLR,,0.00,WeatherDisplay:10.37,2013-06-21 12:31:00,
2013-06-21 07:36:00,76.6,74.7,30.02,SSE,166,0.0,0.0,94,0.00,CLR,,0.00,WeatherDisplay:10.37,2013-06-21 12:36:00,
2013-06-21 07:41:00,76.7,74.8,30.02,SSE,167,4.6,4.6,94,0.00,CLR,,0.00,WeatherDisplay:10.37,2013-06-21 12:41:00,
2013-06-21 07:46:00,76.9,74.7,30.02,SSE,159,3.5,3.5,93,0.00,CLR,,0.00,WeatherDisplay:10.37,2013-06-21 12:46:00,
2013-06-21 07:51:00,77.1,74.9,30.02,SSE,159,6.9,6.9,93,0.00,CLR,,0.00,WeatherDisplay:10.37,2013-06-21 12:51:00,
2013-06-21 07:56:00,77.2,75.0,30.02,SE,135,5.8,5.8,93,0.00,CLR,,0.00,WeatherDisplay:10.37,2013-06-21 12:56:00,
2013-06-21 08:01:00,77.4,75.2,30.02,SSE,159,8.0,8.0,93,0.00,CLR,,0.00,WeatherDisplay:10.37,2013-06-21 13:01:00,
2013-06-21 08:07:00,77.5,75.0,30.03,South,169,7.0,7.0,92,0.00,CLR,,0.00,WeatherDisplay:10.37,2013-06-21 13:07:00,
2013-06-21 08:12:00,77.7,75.2,30.03,SE,134,5.8,5.8,92,0.00,CLR,,0.00,WeatherDisplay:10.37,2013-06-21 13:12:00,
2013-06-21 08:17:00,78.0,75.5,30.03,SE,134,10.4,10.4,92,0.00,CLR,,0.00,WeatherDisplay:10.37,2013-06-21 13:17:00,
2013-06-21 08:22:00,78.1,75.3,30.03,South,172,13.0,13.0,91,0.00,CLR,,0.00,WeatherDisplay:10.37,2013-06-21 13:22:00,
2013-06-21 08:27:00,78.3,75.1,30.03,SSE,153,11.5,11.5,90,0.00,CLR,,0.00,WeatherDisplay:10.37,2013-06-21 13:27:00,
2013-06-21 08:32:00,78.6,75.4,30.03,SSE,163,8.1,8.1,90,0.00,CLR,,0.00,WeatherDisplay:10.37,2013-06-21 13:32:00,
2013-06-21 08:37:00,78.7,75.2,30.03,South,181,11.5,11.5,89,0.00,CLR,,0.00,WeatherDisplay:10.37,2013-06-21 13:37:00,
2013-06-21 08:42:00,78.8,75.3,30.03,South,172,12.7,12.7,89,0.00,CLR,,0.00,WeatherDisplay:10.37,2013-06-21 13:42:00,
2013-06-21 08:47:00,78.9,75.0,30.03,SSE,152,11.5,11.5,88,0.00,CLR,,0.00,WeatherDisplay:10.37,2013-06-21 13:47:00,
2013-06-21 08:52:00,79.0,75.1,30.03,South,169,12.7,12.7,88,0.00,CLR,,0.00,WeatherDisplay:10.37,2013-06-21 13:52:00,
2013-06-21 08:57:00,79.2,75.0,30.03,SE,140,16.1,16.1,87,0.00,CLR,,0.00,WeatherDisplay:10.37,2013-06-21 13:57:00,
2013-06-21 09:02:00,79.6,74.7,30.04,SSE,162,16.1,16.1,85,0.00,CLR,,0.00,WeatherDisplay:10.37,2013-06-21 14:02:00,
2013-06-21 09:07:00,79.8,75.2,30.04,SSE,159,15.0,15.0,86,0.00,CLR,,0.00,WeatherDisplay:10.37,2013-06-21 14:07:00,
2013-06-21 09:12:00,80.0,74.7,30.04,SSE,162,16.1,16.1,84,0.00,CLR,,0.00,WeatherDisplay:10.37,2013-06-21 14:12:00,
2013-06-21 09:17:00,80.4,75.1,30.04,SE,145,8.1,8.2,84,0.00,CLR,,0.00,WeatherDisplay:10.37,2013-06-21 14:17:00,
2013-06-21 09:22:00,80.7,75.4,30.04,SSE,148,12.7,12.7,84,0.00,CLR,,0.00,WeatherDisplay:10.37,2013-06-21 14:22:00,
2013-06-21 09:27:00,81.4,75.0,30.04,SSE,160,15.0,15.0,81,0.00,CLR,,0.00,WeatherDisplay:10.37,2013-06-21 14:27:00,
2013-06-21 09:32:00,81.9,75.5,30.05,SSE,166,13.8,13.8,81,0.00,CLR,,0.00,WeatherDisplay:10.37,2013-06-21 14:32:00,
2013-06-21 09:37:00,82.3,75.5,30.04,SSW,194,11.5,11.5,80,0.00,CLR,,0.00,WeatherDisplay:10.37,2013-06-21 14:37:00,
2013-06-21 09:42:00,82.0,75.2,30.04,SSE,150,13.0,13.0,80,0.00,CLR,,0.00,WeatherDisplay:10.37,2013-06-21 14:42:00,
2013-06-21 09:47:00,81.5,74.7,30.04,SSE,163,11.5,11.5,80,0.00,CLR,,0.00,WeatherDisplay:10.37,2013-06-21 14:47:00,
2013-06-21 09:52:00,81.7,74.9,30.04,SE,135,11.5,11.5,80,0.00,CLR,,0.00,WeatherDisplay:10.37,2013-06-21 14:52:00,
2013-06-21 09:57:00,81.8,74.6,30.04,SSW,198,15.0,15.0,79,0.00,CLR,,0.00,WeatherDisplay:10.37,2013-06-21 14:57:00,
2013-06-21 10:02:00,82.0,74.1,30.04,SE,146,16.1,16.1,77,0.00,CLR,,0.00,WeatherDisplay:10.37,2013-06-21 15:02:00,
2013-06-21 10:07:00,82.7,74.4,30.05,SE,146,12.7,12.7,76,0.00,CLR,,0.00,WeatherDisplay:10.37,2013-06-21 15:07:00,
2013-06-21 10:12:00,83.6,74.0,30.04,SSE,166,13.8,13.8,73,0.00,CLR,,0.00,WeatherDisplay:10.37,2013-06-21 15:12:00,
2013-06-21 10:17:00,84.3,74.3,30.04,South,181,19.6,19.6,72,0.00,CLR,,0.00,WeatherDisplay:10.37,2013-06-21 15:17:00,
2013-06-21 10:22:00,84.6,75.0,30.04,SE,146,8.1,8.5,73,0.00,CLR,,0.00,WeatherDisplay:10.37,2013-06-21 15:22:00,
2013-06-21 10:27:00,84.3,74.3,30.04,South,170,12.7,12.7,72,0.00,CLR,,0.00,WeatherDisplay:10.37,2013-06-21 15:27:00,
2013-06-21 10:32:00,84.1,73.7,30.04,South,174,12.7,12.7,71,0.00,CLR,,0.00,WeatherDisplay:10.37,2013-06-21 15:32:00,
2013-06-21 10:38:00,84.0,74.4,30.04,SW,221,15.0,15.0,73,0.00,CLR,,0.00,WeatherDisplay:10.37,2013-06-21 15:38:00,
2013-06-21 10:43:00,83.4,73.4,30.04,SSW,200,13.8,13.8,72,0.00,CLR,,0.00,WeatherDisplay:10.37,2013-06-21 15:43:00,
2013-06-21 10:48:00,83.3,73.7,30.04,SSW,198,11.5,11.5,73,0.00,CLR,,0.00,WeatherDisplay:10.37,2013-06-21 15:48:00,
2013-06-21 10:53:00,83.4,73.4,30.04,SSW,212,12.7,12.7,72,0.00,CLR,,0.00,WeatherDisplay:10.37,2013-06-21 15:53:00,
2013-06-21 10:58:00,83.8,73.0,30.04,South,169,16.1,16.1,70,0.00,CLR,,0.00,WeatherDisplay:10.37,2013-06-21 15:58:00,
2013-06-21 11:03:00,84.6,72.9,30.04,South,181,16.1,16.1,68,0.00,CLR,,0.00,WeatherDisplay:10.37,2013-06-21 16:03:00,
2013-06-21 11:08:00,85.3,72.6,30.04,SSE,156,12.7,12.7,66,0.00,CLR,,0.00,WeatherDisplay:10.37,2013-06-21 16:08:00,
2013-06-21 11:13:00,85.4,73.6,30.04,SE,145,11.0,11.0,68,0.00,CLR,,0.00,WeatherDisplay:10.37,2013-06-21 16:13:00,
2013-06-21 11:18:00,86.0,73.8,30.04,SE,143,12.7,12.7,67,0.00,CLR,,0.00,WeatherDisplay:10.37,2013-06-21 16:18:00,
2013-06-21 11:23:00,86.6,73.0,30.04,SSE,153,12.7,12.7,64,0.00,CLR,,0.00,WeatherDisplay:10.37,2013-06-21 16:23:00,
2013-06-21 11:28:00,86.3,71.7,30.04,SE,136,15.0,15.0,62,0.00,CLR,,0.00,WeatherDisplay:10.37,2013-06-21 16:28:00,
2013-06-21 11:33:00,86.5,72.9,30.04,South,188,12.7,12.7,64,0.00,CLR,,0.00,WeatherDisplay:10.37,2013-06-21 16:33:00,
2013-06-21 11:38:00,87.0,73.3,30.04,SSE,153,20.7,20.7,64,0.00,CLR,,0.00,WeatherDisplay:10.37,2013-06-21 16:38:00,
2013-06-21 11:43:00,87.1,72.0,30.04,SSE,159,15.0,15.0,61,0.00,CLR,,0.00,WeatherDisplay:10.37,2013-06-21 16:43:00,
2013-06-21 11:48:00,86.9,72.3,30.04,South,181,11.5,11.5,62,0.00,CLR,,0.00,WeatherDisplay:10.37,2013-06-21 16:48:00,
2013-06-21 11:53:00,86.9,70.8,30.04,South,170,17.3,17.3,59,0.00,CLR,,0.00,WeatherDisplay:10.37,2013-06-21 16:53:00,
2013-06-21 11:58:00,87.5,71.9,30.04,SSE,163,13.8,13.8,60,0.00,CLR,,0.00,WeatherDisplay:10.37,2013-06-21 16:58:00,
2013-06-21 12:04:00,87.7,71.6,30.04,SSE,160,16.1,16.1,59,0.00,CLR,,0.00,WeatherDisplay:10.37,2013-06-21 17:04:00,
2013-06-21 12:09:00,88.0,71.9,30.04,SSW,207,12.7,12.7,59,0.00,CLR,,0.00,WeatherDisplay:10.37,2013-06-21 17:09:00,
2013-06-21 12:14:00,88.4,71.2,30.04,SSW,193,19.6,19.6,57,0.00,CLR,,0.00,WeatherDisplay:10.37,2013-06-21 17:14:00,
2013-06-21 12:19:00,88.5,71.3,30.04,SE,136,19.6,19.6,57,0.00,CLR,,0.00,WeatherDisplay:10.37,2013-06-21 17:19:00,
2013-06-21 12:24:00,88.7,69.9,30.04,South,173,16.1,17.1,54,0.00,CLR,,0.00,WeatherDisplay:10.37,2013-06-21 17:24:00,
2013-06-21 12:30:00,89.3,70.5,30.04,SSE,165,20.7,20.7,54,0.00,CLR,,0.00,WeatherDisplay:10.37,2013-06-21 17:30:00,
2013-06-21 12:35:00,89.0,71.3,30.04,SE,146,19.6,19.6,56,0.00,CLR,,0.00,WeatherDisplay:10.37,2013-06-21 17:35:00,
2013-06-21 12:40:00,89.0,71.3,30.04,SSW,193,19.6,19.6,56,0.00,CLR,,0.00,WeatherDisplay:10.37,2013-06-21 17:40:00,
2013-06-21 12:46:00,89.0,71.3,30.03,SSE,154,13.8,13.8,56,0.00,CLR,,0.00,WeatherDisplay:10.37,2013-06-21 17:46:00,
2013-06-21 12:47:00,89.0,71.3,30.03,South,181,10.4,10.4,56,0.00,CLR,,0.00,WeatherDisplay:10.37,2013-06-21 17:47:00,
2013-06-21 12:52:00,89.4,71.6,30.03,SSE,148,15.0,15.0,56,0.00,CLR,,0.00,WeatherDisplay:10.37,2013-06-21 17:52:00,
2013-06-21 13:00:00,89.4,70.6,30.03,SSW,198,17.3,17.3,54,0.00,CLR,,0.00,WeatherDisplay:10.37,2013-06-21 18:00:00,
2013-06-21 13:05:00,89.9,69.9,30.03,SSW,202,12.7,12.7,52,0.00,CLR,,0.00,WeatherDisplay:10.37,2013-06-21 18:05:00,
2013-06-21 13:10:00,90.0,69.4,30.03,SSE,151,15.0,15.0,51,0.00,CLR,,0.00,WeatherDisplay:10.37,2013-06-21 18:10:00,
2013-06-21 13:15:00,90.3,70.3,30.03,SSW,212,11.5,11.5,52,0.00,CLR,,0.00,WeatherDisplay:10.37,2013-06-21 18:15:00,
2013-06-21 13:20:00,90.4,69.8,30.03,South,179,12.7,12.7,51,0.00,CLR,,0.00,WeatherDisplay:10.37,2013-06-21 18:20:00,
2013-06-21 13:23:00,90.8,69.6,30.03,South,176,16.1,16.1,50,0.00,CLR,,0.00,WeatherDisplay:10.37,2013-06-21 18:23:00,
2013-06-21 13:24:00,90.9,69.7,30.03,SSE,160,13.8,13.8,50,0.00,CLR,,0.00,WeatherDisplay:10.37,2013-06-21 18:24:00,
2013-06-21 13:29:00,91.3,68.9,30.03,SSE,151,18.4,18.4,48,0.00,CLR,,0.00,WeatherDisplay:10.37,2013-06-21 18:29:00,
2013-06-21 13:34:00,90.8,69.6,30.02,SSE,156,10.4,10.4,50,0.00,CLR,,0.00,WeatherDisplay:10.37,2013-06-21 18:34:00,
2013-06-21 13:39:00,90.9,70.3,30.02,South,172,10.4,10.4,51,0.00,CLR,,0.00,WeatherDisplay:10.37,2013-06-21 18:39:00,
2013-06-21 13:44:00,91.1,69.9,30.02,SSE,162,19.6,19.6,50,0.00,CLR,,0.00,WeatherDisplay:10.37,2013-06-21 18:44:00,
2013-06-21 13:45:00,91.2,70.0,30.02,South,169,15.0,15.0,50,0.00,CLR,,0.00,WeatherDisplay:10.37,2013-06-21 18:45:00,
2013-06-21 13:46:00,91.3,69.5,30.02,SSE,150,13.8,13.8,49,0.00,CLR,,0.00,WeatherDisplay:10.37,2013-06-21 18:46:00,
2013-06-21 13:51:00,91.7,69.8,30.02,SSW,211,10.4,10.4,49,0.00,CLR,,0.00,WeatherDisplay:10.37,2013-06-21 18:51:00,
2013-06-21 13:56:00,91.3,70.6,30.02,SE,131,9.2,9.2,51,0.00,CLR,,0.00,WeatherDisplay:10.37,2013-06-21 18:56:00,
2013-06-21 14:01:00,91.3,70.6,30.02,SSE,153,10.4,10.4,51,0.00,CLR,,0.00,WeatherDisplay:10.37,2013-06-21 19:01:00,
2013-06-21 14:06:00,91.4,70.1,30.02,South,169,19.6,19.6,50,0.00,CLR,,0.00,WeatherDisplay:10.37,2013-06-21 19:06:00,
2013-06-21 14:12:00,91.5,70.2,30.02,South,177,15.0,15.0,50,0.00,CLR,,0.00,WeatherDisplay:10.37,2013-06-21 19:12:00,
2013-06-21 14:17:00,92.0,70.1,30.01,SSE,156,15.0,15.0,49,0.00,CLR,,0.00,WeatherDisplay:10.37,2013-06-21 19:17:00,
2013-06-21 14:21:00,91.9,69.4,30.01,South,179,13.8,13.8,48,0.00,CLR,,0.00,WeatherDisplay:10.37,2013-06-21 19:21:00,
2013-06-21 14:26:00,91.7,70.4,30.01,South,172,7.0,7.0,50,0.00,CLR,,0.00,WeatherDisplay:10.37,2013-06-21 19:26:00,
2013-06-21 14:31:00,91.9,70.6,30.01,SSE,163,17.3,17.3,50,0.00,CLR,,0.00,WeatherDisplay:10.37,2013-06-21 19:31:00,
2013-06-21 14:36:00,92.5,69.3,30.00,ESE,106,11.5,11.5,47,0.00,CLR,,0.00,WeatherDisplay:10.37,2013-06-21 19:36:00,
2013-06-21 14:41:00,92.8,69.6,30.00,ESE,111,11.5,11.5,47,0.00,CLR,,0.00,WeatherDisplay:10.37,2013-06-21 19:41:00,
2013-06-21 14:42:00,92.9,70.3,30.00,SSE,159,9.2,9.2,48,0.00,CLR,,0.00,WeatherDisplay:10.37,2013-06-21 19:42:00,
2013-06-21 14:47:00,93.1,68.6,30.00,South,174,11.5,11.5,45,0.00,CLR,,0.00,WeatherDisplay:10.37,2013-06-21 19:47:00,
2013-06-21 14:52:00,92.8,69.0,30.00,SSE,160,10.4,10.4,46,0.00,CLR,,0.00,WeatherDisplay:10.37,2013-06-21 19:52:00,
2013-06-21 14:57:00,92.3,68.5,30.00,SE,135,18.4,18.4,46,0.00,CLR,,0.00,WeatherDisplay:10.37,2013-06-21 19:57:00,
2013-06-21 15:02:00,93.1,68.6,30.00,South,175,17.3,17.3,45,0.00,CLR,,0.00,WeatherDisplay:10.37,2013-06-21 20:02:00,
2013-06-21 15:04:00,93.2,69.3,30.00,SSE,156,11.5,11.5,46,0.00,CLR,,0.00,WeatherDisplay:10.37,2013-06-21 20:04:00,
2013-06-21 15:09:00,93.7,69.2,30.00,South,184,11.5,11.5,45,0.00,CLR,,0.00,WeatherDisplay:10.37,2013-06-21 20:09:00,
2013-06-21 15:11:00,93.7,68.5,29.99,South,174,16.1,16.1,44,0.00,CLR,,0.00,WeatherDisplay:10.37,2013-06-21 20:11:00,
2013-06-21 15:13:00,93.7,67.8,29.99,SE,142,18.4,18.4,43,0.00,CLR,,0.00,WeatherDisplay:10.37,2013-06-21 20:13:00,
2013-06-21 15:18:00,94.0,68.1,30.00,SE,124,17.3,17.3,43,0.00,CLR,,0.00,WeatherDisplay:10.37,2013-06-21 20:18:00,
2013-06-21 15:23:00,93.7,67.8,29.99,South,175,15.0,15.0,43,0.00,CLR,,0.00,WeatherDisplay:10.37,2013-06-21 20:23:00,
2013-06-21 15:28:00,94.2,68.3,29.99,ESE,103,12.7,12.7,43,0.00,CLR,,0.00,WeatherDisplay:10.37,2013-06-21 20:28:00,
2013-06-21 15:33:00,94.1,66.8,29.99,SSE,166,16.1,16.1,41,0.00,CLR,,0.00,WeatherDisplay:10.37,2013-06-21 20:33:00,
2013-06-21 15:38:00,93.6,67.7,29.99,SSE,153,19.6,19.6,43,0.00,CLR,,0.00,WeatherDisplay:10.37,2013-06-21 20:38:00,
2013-06-21 15:44:00,93.2,67.4,29.99,East,84,12.7,12.7,43,0.00,CLR,,0.00,WeatherDisplay:10.37,2013-06-21 20:44:00,
2013-06-21 15:49:00,93.5,67.6,29.98,SSE,159,12.7,12.7,43,0.00,CLR,,0.00,WeatherDisplay:10.37,2013-06-21 20:49:00,
2013-06-21 15:54:00,93.6,67.1,29.98,South,173,19.6,19.6,42,0.00,CLR,,0.00,WeatherDisplay:10.37,2013-06-21 20:54:00,
2013-06-21 15:59:00,93.5,67.6,29.98,SSE,160,12.7,12.7,43,0.00,CLR,,0.00,WeatherDisplay:10.37,2013-06-21 20:59:00,
2013-06-21 16:04:00,94.1,67.5,29.98,SE,136,18.0,18.0,42,0.00,CLR,,0.00,WeatherDisplay:10.37,2013-06-21 21:04:00,
2013-06-21 16:09:00,94.2,66.9,29.98,SE,143,18.4,18.4,41,0.00,CLR,,0.00,WeatherDisplay:10.37,2013-06-21 21:09:00,
2013-06-21 16:14:00,94.6,67.3,29.98,SSE,150,16.1,16.1,41,0.00,CLR,,0.00,WeatherDisplay:10.37,2013-06-21 21:14:00,
2013-06-21 16:19:00,94.4,67.1,29.98,SSE,150,13.8,13.8,41,0.00,CLR,,0.00,WeatherDisplay:10.37,2013-06-21 21:19:00,
2013-06-21 16:24:00,94.6,66.5,29.97,South,179,11.5,11.5,40,0.00,CLR,,0.00,WeatherDisplay:10.37,2013-06-21 21:24:00,
2013-06-21 16:29:00,94.6,68.0,29.97,SSE,162,12.0,12.0,42,0.00,CLR,,0.00,WeatherDisplay:10.37,2013-06-21 21:29:00,
2013-06-21 16:34:00,95.0,66.2,29.96,South,175,15.0,15.0,39,0.00,CLR,,0.00,WeatherDisplay:10.37,2013-06-21 21:34:00,
2013-06-21 16:39:00,95.1,66.2,29.97,SSE,160,16.1,16.1,39,0.00,CLR,,0.00,WeatherDisplay:10.37,2013-06-21 21:39:00,
2013-06-21 16:44:00,95.0,66.2,29.96,SE,135,12.7,12.7,39,0.00,CLR,,0.00,WeatherDisplay:10.37,2013-06-21 21:44:00,
2013-06-21 16:49:00,95.1,65.5,29.96,SE,142,17.3,17.3,38,0.00,CLR,,0.00,WeatherDisplay:10.37,2013-06-21 21:49:00,
2013-06-21 16:54:00,94.8,66.0,29.96,SSE,162,12.7,12.7,39,0.00,CLR,,0.00,WeatherDisplay:10.37,2013-06-21 21:54:00,
2013-06-21 16:59:00,95.0,66.2,29.95,South,188,16.1,16.1,39,0.00,CLR,,0.00,WeatherDisplay:10.37,2013-06-21 21:59:00,
2013-06-21 17:04:00,95.2,64.0,29.95,SSW,208,17.3,17.3,36,0.00,CLR,,0.00,WeatherDisplay:10.37,2013-06-21 22:04:00,
2013-06-21 17:09:00,95.1,65.5,29.95,SSE,155,11.5,11.5,38,0.00,CLR,,0.00,WeatherDisplay:10.37,2013-06-21 22:09:00,
2013-06-21 17:14:00,95.0,63.1,29.95,SE,143,19.6,19.6,35,0.00,CLR,,0.00,WeatherDisplay:10.37,2013-06-21 22:14:00,
2013-06-21 17:19:00,94.8,62.9,29.95,SE,126,19.6,19.6,35,0.00,CLR,,0.00,WeatherDisplay:10.37,2013-06-21 22:19:00,
2013-06-21 17:24:00,94.8,62.9,29.95,SE,143,18.4,18.4,35,0.00,CLR,,0.00,WeatherDisplay:10.37,2013-06-21 22:24:00,
2013-06-21 17:29:00,95.0,64.6,29.95,SSE,156,19.6,19.6,37,0.00,CLR,,0.00,WeatherDisplay:10.37,2013-06-21 22:29:00,
2013-06-21 17:34:00,94.9,64.6,29.94,South,170,13.8,13.8,37,0.00,CLR,,0.00,WeatherDisplay:10.37,2013-06-21 22:34:00,
2013-06-21 17:39:00,95.0,63.9,29.94,SE,134,16.1,16.1,36,0.00,CLR,,0.00,WeatherDisplay:10.37,2013-06-21 22:39:00,
2013-06-21 17:44:00,94.9,65.3,29.94,South,188,13.8,13.8,38,0.00,CLR,,0.00,WeatherDisplay:10.37,2013-06-21 22:44:00,
2013-06-21 17:49:00,94.7,64.4,29.94,SE,129,16.1,16.1,37,0.00,CLR,,0.00,WeatherDisplay:10.37,2013-06-21 22:49:00,
2013-06-21 17:54:00,94.7,63.6,29.94,SE,136,16.1,16.1,36,0.00,CLR,,0.00,WeatherDisplay:10.37,2013-06-21 22:54:00,
2013-06-21 17:59:00,94.6,64.3,29.94,SSE,147,12.7,12.7,37,0.00,CLR,,0.00,WeatherDisplay:10.37,2013-06-21 22:59:00,
2013-06-21 18:04:00,94.5,63.4,29.94,SSE,155,19.6,19.6,36,0.00,CLR,,0.00,WeatherDisplay:10.37,2013-06-21 23:04:00,
2013-06-21 18:09:00,94.5,64.2,29.93,SSE,166,16.1,16.1,37,0.00,CLR,,0.00,WeatherDisplay:10.37,2013-06-21 23:09:00,
2013-06-21 18:14:00,94.5,62.6,29.93,SSE,147,12.7,12.7,35,0.00,CLR,,0.00,WeatherDisplay:10.37,2013-06-21 23:14:00,
2013-06-21 18:19:00,94.4,62.5,29.93,SE,135,19.6,19.6,35,0.00,CLR,,0.00,WeatherDisplay:10.37,2013-06-21 23:19:00,
2013-06-21 18:24:00,94.4,61.7,29.93,SE,135,16.1,16.1,34,0.00,CLR,,0.00,WeatherDisplay:10.37,2013-06-21 23:24:00,
2013-06-21 18:29:00,94.2,62.4,29.93,SSE,149,13.8,13.8,35,0.00,CLR,,0.00,WeatherDisplay:10.37,2013-06-21 23:29:00,
2013-06-21 18:34:00,94.1,63.9,29.93,South,171,17.3,17.3,37,0.00,CLR,,0.00,WeatherDisplay:10.37,2013-06-21 23:34:00,
2013-06-21 18:39:00,93.9,63.7,29.93,SE,135,12.7,12.7,37,0.00,CLR,,0.00,WeatherDisplay:10.37,2013-06-21 23:39:00,
2013-06-21 18:44:00,93.9,64.4,29.93,SSE,153,17.3,17.3,38,0.00,CLR,,0.00,WeatherDisplay:10.37,2013-06-21 23:44:00,
2013-06-21 18:49:00,93.6,64.9,29.93,SSE,159,12.7,12.7,39,0.00,CLR,,0.00,WeatherDisplay:10.37,2013-06-21 23:49:00,
2013-06-21 18:54:00,93.5,63.3,29.93,SSE,153,17.3,17.3,37,0.00,CLR,,0.00,WeatherDisplay:10.37,2013-06-21 23:54:00,
2013-06-21 18:59:00,93.4,62.5,29.93,SE,146,15.0,15.0,36,0.00,CLR,,0.00,WeatherDisplay:10.37,2013-06-21 23:59:00,
2013-06-21 19:04:00,93.2,63.1,29.93,SSE,159,16.1,16.1,37,0.00,CLR,,0.00,WeatherDisplay:10.37,2013-06-22 00:04:00,
2013-06-21 19:09:00,93.0,62.9,29.93,SE,127,18.4,18.4,37,0.00,CLR,,0.00,WeatherDisplay:10.37,2013-06-22 00:09:00,
2013-06-21 19:14:00,92.8,63.5,29.93,South,191,11.5,11.5,38,0.00,CLR,,0.00,WeatherDisplay:10.37,2013-06-22 00:14:00,
2013-06-21 19:19:00,92.7,65.6,29.93,SSE,162,14.0,14.0,41,0.00,CLR,,0.00,WeatherDisplay:10.37,2013-06-22 00:19:00,
2013-06-21 19:24:00,92.4,65.3,29.94,East,101,17.3,17.3,41,0.00,CLR,,0.00,WeatherDisplay:10.37,2013-06-22 00:24:00,
2013-06-21 19:29:00,92.2,65.1,29.93,SE,136,15.0,15.0,41,0.00,CLR,,0.00,WeatherDisplay:10.37,2013-06-22 00:29:00,
2013-06-21 19:34:00,91.9,64.8,29.93,SE,146,13.8,13.8,41,0.00,CLR,,0.00,WeatherDisplay:10.37,2013-06-22 00:34:00,
2013-06-21 19:39:00,91.6,65.3,29.93,SE,136,13.8,13.8,42,0.00,CLR,,0.00,WeatherDisplay:10.37,2013-06-22 00:39:00,
2013-06-21 19:44:00,91.1,64.8,29.93,SE,144,18.4,18.4,42,0.00,CLR,,0.00,WeatherDisplay:10.37,2013-06-22 00:44:00,
2013-06-21 19:49:00,90.8,64.5,29.93,SSE,156,13.8,13.8,42,0.00,CLR,,0.00,WeatherDisplay:10.37,2013-06-22 00:49:00,
2013-06-21 19:54:00,90.4,64.9,29.93,SSE,162,12.7,12.7,43,0.00,CLR,,0.00,WeatherDisplay:10.37,2013-06-22 00:54:00,
2013-06-21 19:59:00,89.9,65.1,29.93,SE,146,10.4,10.4,44,0.00,CLR,,0.00,WeatherDisplay:10.37,2013-06-22 00:59:00,
2013-06-21 20:04:00,89.5,65.4,29.94,SE,129,8.1,8.1,45,0.00,CLR,,0.00,WeatherDisplay:10.37,2013-06-22 01:04:00,
2013-06-21 20:09:00,89.3,65.8,29.94,ESE,122,11.5,11.5,46,0.00,CLR,,0.00,WeatherDisplay:10.37,2013-06-22 01:09:00,
2013-06-21 20:14:00,89.0,64.9,29.94,SSE,154,15.0,15.0,45,0.00,CLR,,0.00,WeatherDisplay:10.37,2013-06-22 01:14:00,
2013-06-21 20:19:00,88.8,65.4,29.94,SSE,154,13.8,13.8,46,0.00,CLR,,0.00,WeatherDisplay:10.37,2013-06-22 01:19:00,
2013-06-21 20:24:00,88.4,65.6,29.94,SE,143,6.9,6.9,47,0.00,CLR,,0.00,WeatherDisplay:10.37,2013-06-22 01:24:00,
2013-06-21 20:29:00,88.0,65.2,29.94,SE,145,6.9,7.0,47,0.00,CLR,,0.00,WeatherDisplay:10.37,2013-06-22 01:29:00,
2013-06-21 20:34:00,87.8,65.1,29.94,SE,142,9.2,9.2,47,0.00,CLR,,0.00,WeatherDisplay:10.37,2013-06-22 01:34:00,
2013-06-21 20:39:00,87.7,64.4,29.94,SE,146,10.4,10.4,46,0.00,CLR,,0.00,WeatherDisplay:10.37,2013-06-22 01:39:00,
2013-06-21 20:44:00,87.4,64.7,29.94,SE,131,5.8,5.8,47,0.00,CLR,,0.00,WeatherDisplay:10.37,2013-06-22 01:44:00,
2013-06-21 20:49:00,87.0,64.3,29.94,SE,135,8.1,8.1,47,0.00,CLR,,0.00,WeatherDisplay:10.37,2013-06-22 01:49:00,
2013-06-21 20:54:00,86.6,64.6,29.94,SE,136,5.8,5.8,48,0.00,CLR,,0.00,WeatherDisplay:10.37,2013-06-22 01:54:00,
2013-06-21 20:59:00,86.2,64.8,29.94,SE,143,5.8,5.8,49,0.00,CLR,,0.00,WeatherDisplay:10.37,2013-06-22 01:59:00,
2013-06-21 21:04:00,85.7,64.9,29.94,SSE,148,5.8,5.8,50,0.00,CLR,,0.00,WeatherDisplay:10.37,2013-06-22 02:04:00,
2013-06-21 21:09:00,85.3,64.6,29.94,SE,134,5.8,5.8,50,0.00,CLR,,0.00,WeatherDisplay:10.37,2013-06-22 02:09:00,
2013-06-21 21:14:00,84.9,64.8,29.94,SE,128,5.8,5.8,51,0.00,CLR,,0.00,WeatherDisplay:10.37,2013-06-22 02:14:00,
2013-06-21 21:19:00,84.5,64.9,29.95,ESE,121,5.8,5.8,52,0.00,CLR,,0.00,WeatherDisplay:10.37,2013-06-22 02:19:00,
2013-06-21 21:24:00,84.2,65.8,29.95,SE,138,6.9,6.9,54,0.00,CLR,,0.00,WeatherDisplay:10.37,2013-06-22 02:24:00,
2013-06-21 21:29:00,83.9,66.0,29.95,SE,135,9.2,9.2,55,0.00,CLR,,0.00,WeatherDisplay:10.37,2013-06-22 02:29:00,
2013-06-21 21:34:00,83.8,66.9,29.95,SSE,148,8.1,8.1,57,0.00,CLR,,0.00,WeatherDisplay:10.37,2013-06-22 02:34:00,
2013-06-21 21:39:00,83.7,68.3,29.95,SE,132,9.2,9.2,60,0.00,CLR,,0.00,WeatherDisplay:10.37,2013-06-22 02:39:00,
2013-06-21 21:44:00,83.7,69.3,29.95,SE,132,10.4,10.4,62,0.00,CLR,,0.00,WeatherDisplay:10.37,2013-06-22 02:44:00,
2013-06-21 21:49:00,83.6,70.1,29.95,SE,124,11.5,11.5,64,0.00,CLR,,0.00,WeatherDisplay:10.37,2013-06-22 02:49:00,
2013-06-21 21:54:00,83.6,70.6,29.95,SE,128,10.4,10.4,65,0.00,CLR,,0.00,WeatherDisplay:10.37,2013-06-22 02:54:00,
2013-06-21 21:59:00,83.5,70.9,29.95,SE,134,11.5,11.5,66,0.00,CLR,,0.00,WeatherDisplay:10.37,2013-06-22 02:59:00,
2013-06-21 22:04:00,83.4,71.3,29.95,SE,127,12.7,12.7,67,0.00,CLR,,0.00,WeatherDisplay:10.37,2013-06-22 03:04:00,
2013-06-21 22:09:00,83.2,71.5,29.95,SE,132,13.8,13.8,68,0.00,CLR,,0.00,WeatherDisplay:10.37,2013-06-22 03:09:00,
2013-06-21 22:14:00,83.0,71.3,29.96,SE,129,11.5,11.5,68,0.00,CLR,,0.00,WeatherDisplay:10.37,2013-06-22 03:14:00,
2013-06-21 22:19:00,82.8,71.6,29.96,ESE,112,8.1,8.1,69,0.00,CLR,,0.00,WeatherDisplay:10.37,2013-06-22 03:19:00,
2013-06-21 22:24:00,82.7,71.5,29.96,SE,143,13.8,13.8,69,0.00,CLR,,0.00,WeatherDisplay:10.37,2013-06-22 03:24:00,
2013-06-21 22:29:00,82.5,71.7,29.96,SE,133,11.5,11.5,70,0.00,CLR,,0.00,WeatherDisplay:10.37,2013-06-22 03:29:00,
2013-06-21 22:34:00,82.3,71.5,29.96,SE,136,11.5,11.5,70,0.00,CLR,,0.00,WeatherDisplay:10.37,2013-06-22 03:34:00,
2013-06-21 22:39:00,82.3,72.0,29.96,SE,128,19.6,19.6,71,0.00,CLR,,0.00,WeatherDisplay:10.37,2013-06-22 03:39:00,
2013-06-21 22:44:00,82.1,71.8,29.96,ESE,120,13.8,13.8,71,0.00,CLR,,0.00,WeatherDisplay:10.37,2013-06-22 03:44:00,
2013-06-21 22:50:00,81.9,72.0,29.97,SE,134,11.5,11.5,72,0.00,CLR,,0.00,WeatherDisplay:10.37,2013-06-22 03:50:00,
2013-06-21 22:55:00,81.7,72.2,29.97,SE,128,17.3,17.3,73,0.00,CLR,,0.00,WeatherDisplay:10.37,2013-06-22 03:55:00,
2013-06-21 23:00:00,81.5,72.4,29.97,SE,135,12.7,12.7,74,0.00,CLR,,0.00,WeatherDisplay:10.37,2013-06-22 04:00:00,
2013-06-21 23:01:00,81.4,72.3,29.97,SSE,159,9.2,9.2,74,0.00,CLR,,0.00,WeatherDisplay:10.37,2013-06-22 04:01:00,
2013-06-21 23:02:00,81.4,72.3,29.98,SE,131,12.7,12.7,74,0.00,CLR,,0.00,WeatherDisplay:10.37,2013-06-22 04:02:00,
2013-06-21 23:07:00,81.2,72.5,29.97,SE,136,11.5,11.5,75,0.00,CLR,,0.00,WeatherDisplay:10.37,2013-06-22 04:07:00,
2013-06-21 23:12:00,80.9,72.2,29.98,East,86,11.5,11.5,75,0.00,CLR,,0.00,WeatherDisplay:10.37,2013-06-22 04:12:00,
2013-06-21 23:17:00,80.8,72.5,29.98,SE,143,15.0,15.0,76,0.00,CLR,,0.00,WeatherDisplay:10.37,2013-06-22 04:17:00,
2013-06-21 23:22:00,80.7,72.4,29.98,ESE,121,11.5,11.5,76,0.00,CLR,,0.00,WeatherDisplay:10.37,2013-06-22 04:22:00,
2013-06-21 23:27:00,80.5,72.6,29.98,SE,145,11.5,11.5,77,0.00,CLR,,0.00,WeatherDisplay:10.37,2013-06-22 04:27:00,
2013-06-21 23:32:00,80.3,72.8,29.98,SSE,154,11.5,11.5,78,0.00,CLR,,0.00,WeatherDisplay:10.37,2013-06-22 04:32:00,
2013-06-21 23:37:00,80.1,72.6,29.98,SE,138,9.0,9.0,78,0.00,CLR,,0.00,WeatherDisplay:10.37,2013-06-22 04:37:00,
2013-06-21 23:42:00,80.0,72.9,29.99,SE,145,10.4,10.4,79,0.00,CLR,,0.00,WeatherDisplay:10.37,2013-06-22 04:42:00,
2013-06-21 23:47:00,79.8,73.1,29.99,SE,138,10.4,10.4,80,0.00,CLR,,0.00,WeatherDisplay:10.37,2013-06-22 04:47:00,
2013-06-21 23:52:00,79.7,73.0,29.99,SE,134,13.8,13.8,80,0.00,CLR,,0.00,WeatherDisplay:10.37,2013-06-22 04:52:00,
2013-06-21 23:57:00,79.6,73.3,29.99,SE,135,8.1,8.1,81,0.00,CLR,,0.00,WeatherDisplay:10.37,2013-06-22 04:57:00,